Time;durP1;ratioP1;P1;durP2;ratioP2;P2;SDS_P1;SDS_P2;PMS_P1;PMS_P2;Temp;Humidity;BMP_temperature;BMP_pressure;BME280_temperature;BME280_humidity;BME280_pressure;Samples;Min_cycle;Max_cycle;Signal;HPM_P1;HPM_P2
2022/07/05 00:01:58;;;;;;;;;;;;;;;28.91;43.29;94572.06;4992650;28;7303;-63
2022/07/05 00:04:26;;;;;;;;;;;;;;;28.89;43.01;94571.88;4995072;28;8363;-63
2022/07/05 00:09:39;;;;;;;;;;;;;;;28.91;43.13;94569.31;5020498;28;6860;-63
2022/07/05 00:12:05;;;;;;;;;;;;;;;28.92;43.63;94567.28;4998378;28;9099;-63
2022/07/05 00:14:31;;;;;;;;;;;;;;;28.92;42.93;94564.53;4979227;28;7279;-63
2022/07/05 00:16:57;;;;;;;;;;;;;;;28.91;42.76;94569.31;5010724;28;7244;-63
2022/07/05 00:19:24;;;;;;;;;;;;;;;28.90;42.78;94565.06;5017346;28;9116;-63
2022/07/05 00:21:49;;;;;;;;;;;;;;;28.89;42.97;94569.09;4995763;28;9355;-63
2022/07/05 00:24:18;;;;;;;;;;;;;;;28.90;43.16;94558.78;4996573;28;6973;-63
2022/07/05 00:26:45;;;;;;;;;;;;;;;28.91;42.80;94571.31;4995643;28;9396;-63
2022/07/05 00:29:12;;;;;;;;;;;;;;;28.88;43.62;94564.81;4999452;28;7135;-62
2022/07/05 00:31:38;;;;;;;;;;;;;;;28.91;42.82;94571.31;5007496;28;7275;-63
2022/07/05 00:34:04;;;;;;;;;;;;;;;28.90;42.84;94558.78;5002660;28;7593;-62
2022/07/05 00:36:29;;;;;;;;;;;;;;;28.91;43.23;94557.47;5020983;28;9057;-63
2022/07/05 00:39:11;;;;;;;;;;;;;;;28.90;42.82;94565.06;5018729;28;9067;-63
2022/07/05 00:41:37;;;;;;;;;;;;;;;28.91;42.73;94554.72;5005083;28;7274;-63
2022/07/05 00:44:09;;;;;;;;;;;;;;;28.92;43.04;94556.22;5019825;28;7248;-63
2022/07/05 00:46:47;;;;;;;;;;;;;;;28.90;42.76;94556.75;4985720;28;7164;-63
2022/07/05 00:49:15;;;;;;;;;;;;;;;28.90;43.31;94554.00;5014915;28;7235;-63
2022/07/05 00:51:58;;;;;;;;;;;;;;;28.88;43.04;94553.75;5005698;28;7214;-63
2022/07/05 00:54:29;;;;;;;;;;;;;;;28.86;43.13;94556.28;5013561;28;6987;-63
2022/07/05 00:57:01;;;;;;;;;;;;;;;28.86;42.96;94559.06;4996806;28;7868;-63
2022/07/05 00:59:28;;;;;;;;;;;;;;;28.86;42.23;94552.81;5016938;28;7223;-63
2022/07/05 01:01:55;;;;;;;;;;;;;;;28.86;42.58;94558.34;4998698;28;7216;-63
2022/07/05 01:04:22;;;;;;;;;;;;;;;28.85;43.07;94557.59;4997053;28;8176;-63
2022/07/05 01:06:50;;;;;;;;;;;;;;;28.84;42.94;94555.34;4980493;28;9162;-63
2022/07/05 01:09:22;;;;;;;;;;;;;;;28.85;42.83;94557.59;4985724;28;9104;-64
2022/07/05 01:11:49;;;;;;;;;;;;;;;28.85;43.29;94551.28;5001387;28;9105;-63
2022/07/05 01:14:21;;;;;;;;;;;;;;;28.85;42.97;94552.03;4999717;28;7510;-63
2022/07/05 01:16:49;;;;;;;;;;;;;;;28.86;43.32;94553.53;5010475;28;7200;-63
2022/07/05 01:19:20;;;;;;;;;;;;;;;28.85;42.78;94556.84;4993377;28;8731;-63
2022/07/05 01:21:48;;;;;;;;;;;;;;;28.85;43.12;94552.03;4984986;28;7021;-63
2022/07/05 01:24:16;;;;;;;;;;;;;;;28.85;43.00;94560.34;4980036;28;8101;-64
2022/07/05 01:26:50;;;;;;;;;;;;;;;28.84;43.05;94549.81;4982244;28;6848;-64
2022/07/05 01:29:27;;;;;;;;;;;;;;;28.84;43.33;94561.63;5002819;28;7057;-63
2022/07/05 01:31:59;;;;;;;;;;;;;;;28.84;42.97;94561.63;4994035;28;7280;-63
2022/07/05 01:34:43;;;;;;;;;;;;;;;28.82;42.67;94553.09;5017026;28;7257;-63
2022/07/05 01:37:18;;;;;;;;;;;;;;;28.82;42.92;94544.03;5015997;28;9075;-63
2022/07/05 01:39:46;;;;;;;;;;;;;;;28.83;43.36;94551.09;4994637;28;9047;-64
2022/07/05 01:42:41;;;;;;;;;;;;;;;28.82;43.20;94561.41;4994630;28;7365;-63
2022/07/05 01:45:41;;;;;;;;;;;;;;;28.82;42.91;94564.16;4970371;28;7166;-63
2022/07/05 01:48:14;;;;;;;;;;;;;;;28.80;43.04;94577.78;4968744;28;7281;-63
2022/07/05 01:51:18;;;;;;;;;;;;;;;28.82;42.79;94580.03;4971463;28;6974;-63
2022/07/05 01:54:10;;;;;;;;;;;;;;;28.81;42.74;94584.84;4912707;29;7788;-63
2022/07/05 01:56:46;;;;;;;;;;;;;;;28.83;42.72;94589.84;4910308;29;7324;-63
2022/07/05 01:59:13;;;;;;;;;;;;;;;28.80;43.08;94561.19;4928517;29;9079;-63
2022/07/05 02:01:43;;;;;;;;;;;;;;;28.82;43.02;94564.16;4894906;29;7063;-63
2022/07/05 02:04:13;;;;;;;;;;;;;;;28.83;42.81;94562.91;4898363;29;7200;-63
2022/07/05 02:06:48;;;;;;;;;;;;;;;28.81;43.07;94578.56;4911184;29;6974;-63
2022/07/05 02:09:17;;;;;;;;;;;;;;;28.82;42.80;94588.34;4912784;29;7297;-63
2022/07/05 02:11:55;;;;;;;;;;;;;;;28.80;43.06;94582.56;4899539;29;8201;-63
2022/07/05 02:14:23;;;;;;;;;;;;;;;28.79;42.61;94587.38;4928774;29;7273;-63
2022/07/05 02:17:01;;;;;;;;;;;;;;;28.80;43.10;94594.41;4912317;29;9141;-63
2022/07/05 02:19:32;;;;;;;;;;;;;;;28.82;42.82;94582.78;4928344;29;6975;-63
2022/07/05 02:21:59;;;;;;;;;;;;;;;28.82;42.90;94585.56;4939769;28;7225;-63
2022/07/05 02:24:29;;;;;;;;;;;;;;;28.78;43.16;94579.59;4929783;29;7245;-63
2022/07/05 02:26:55;;;;;;;;;;;;;;;28.79;42.77;94581.84;4947152;28;9126;-64
2022/07/05 02:29:21;;;;;;;;;;;;;;;28.76;42.94;94582.91;4964681;28;9013;-64
2022/07/05 02:31:48;;;;;;;;;;;;;;;28.77;42.78;94589.94;5002039;28;7298;-63
2022/07/05 02:34:16;;;;;;;;;;;;;;;28.78;42.93;94579.59;4995999;28;7223;-64
2022/07/05 02:36:43;;;;;;;;;;;;;;;28.78;43.20;94579.59;4997080;28;8808;-63
2022/07/05 02:39:11;;;;;;;;;;;;;;;28.77;42.96;94580.88;4979698;28;7182;-63
2022/07/05 02:41:39;;;;;;;;;;;;;;;28.73;42.96;94575.63;4995396;28;7123;-64
2022/07/05 02:44:11;;;;;;;;;;;;;;;28.74;42.80;94579.16;4994955;28;7370;-63
2022/07/05 02:46:49;;;;;;;;;;;;;;;28.74;43.01;94577.13;5020532;28;8425;-63
2022/07/05 02:49:15;;;;;;;;;;;;;;;28.76;43.28;94582.16;5019778;28;8623;-63
2022/07/05 02:51:44;;;;;;;;;;;;;;;28.74;42.94;94590.22;4999524;28;7575;-63
2022/07/05 02:54:11;;;;;;;;;;;;;;;28.72;42.78;94585.22;5002690;28;8723;-64
2022/07/05 02:56:44;;;;;;;;;;;;;;;28.74;43.11;94595.78;5001751;28;7271;-63
2022/07/05 02:59:14;;;;;;;;;;;;;;;28.74;42.81;94604.06;5007080;28;9168;-64
2022/07/05 03:01:43;;;;;;;;;;;;;;;28.72;42.84;94599.06;4989283;28;7226;-63
2022/07/05 03:04:09;;;;;;;;;;;;;;;28.71;42.85;94603.09;5022917;28;6982;-64
2022/07/05 03:06:45;;;;;;;;;;;;;;;28.70;43.29;94607.16;4989885;28;6981;-63
2022/07/05 03:09:11;;;;;;;;;;;;;;;28.70;42.93;94601.63;4997611;28;7024;-64
2022/07/05 03:11:39;;;;;;;;;;;;;;;28.68;42.91;94604.16;5007333;28;7544;-63
2022/07/05 03:14:15;;;;;;;;;;;;;;;28.71;43.18;94602.38;5013578;28;8912;-63
2022/07/05 03:16:44;;;;;;;;;;;;;;;28.71;43.31;94611.41;4992036;28;9108;-63
2022/07/05 03:19:11;;;;;;;;;;;;;;;28.71;43.04;94614.16;5002142;28;7267;-63
2022/07/05 03:21:43;;;;;;;;;;;;;;;28.71;42.92;94613.44;4991557;28;8264;-63
2022/07/05 03:24:15;;;;;;;;;;;;;;;28.70;42.88;94612.69;5009738;28;7054;-64
2022/07/05 03:26:48;;;;;;;;;;;;;;;28.73;43.07;94611.63;4997135;28;8772;-63
2022/07/05 03:29:16;;;;;;;;;;;;;;;28.72;42.66;94604.59;4995896;28;7244;-63
2022/07/05 03:31:55;;;;;;;;;;;;;;;28.74;43.03;94609.59;4995961;28;7028;-63
2022/07/05 03:34:55;;;;;;;;;;;;;;;28.74;42.68;94607.59;4996209;28;9326;-63
2022/07/05 03:37:52;;;;;;;;;;;;;;;28.75;42.71;94608.34;4931956;29;6974;-63
2022/07/05 03:40:30;;;;;;;;;;;;;;;28.76;43.02;94604.28;4871610;29;7562;-63
2022/07/05 03:43:11;;;;;;;;;;;;;;;28.73;42.89;94597.06;4876805;29;7894;-63
2022/07/05 03:45:37;;;;;;;;;;;;;;;28.72;42.77;94604.59;4870571;29;7061;-63
2022/07/05 03:48:03;;;;;;;;;;;;;;;28.70;42.93;94607.16;4861812;29;9552;-63
2022/07/05 03:50:44;;;;;;;;;;;;;;;28.70;42.73;94609.16;4879365;29;9053;-63
2022/07/05 03:53:39;;;;;;;;;;;;;;;28.70;43.16;94603.63;4874845;29;7010;-63
2022/07/05 03:56:19;;;;;;;;;;;;;;;28.68;43.11;94612.47;4841345;29;7214;-63
2022/07/05 03:58:49;;;;;;;;;;;;;;;28.69;43.02;94605.66;4841021;29;7607;-62
2022/07/05 04:01:15;;;;;;;;;;;;;;;28.70;42.87;94601.63;4841343;29;9097;-63
2022/07/05 04:03:43;;;;;;;;;;;;;;;28.70;42.73;94612.69;4825782;29;7614;-63
2022/07/05 04:06:10;;;;;;;;;;;;;;;28.70;42.56;94614.72;4834436;29;9505;-63
2022/07/05 04:08:44;;;;;;;;;;;;;;;28.69;42.89;94611.19;4824258;29;7303;-64
2022/07/05 04:11:12;;;;;;;;;;;;;;;28.70;42.97;94623.00;4839919;29;8130;-63
2022/07/05 04:13:50;;;;;;;;;;;;;;;28.70;43.34;94623.00;4822081;29;8895;-64
2022/07/05 04:16:19;;;;;;;;;;;;;;;28.67;42.87;94619.28;4883015;28;7081;-63
2022/07/05 04:18:47;;;;;;;;;;;;;;;28.70;43.18;94625.78;4941810;28;7016;-63
2022/07/05 04:21:24;;;;;;;;;;;;;;;28.68;43.04;94620.78;4926879;28;7415;-63
2022/07/05 04:23:52;;;;;;;;;;;;;;;28.66;42.87;94623.31;4938030;28;9050;-63
2022/07/05 04:26:20;;;;;;;;;;;;;;;28.67;42.60;94627.56;4933932;28;9096;-63
2022/07/05 04:29:18;;;;;;;;;;;;;;;28.68;42.69;94626.31;4941448;28;9163;-63
2022/07/05 04:32:13;;;;;;;;;;;;;;;28.67;42.54;94630.34;4861909;29;9419;-62
2022/07/05 04:34:51;;;;;;;;;;;;;;;28.66;42.96;94628.09;4860314;29;7337;-63
2022/07/05 04:37:19;;;;;;;;;;;;;;;28.65;43.01;94624.59;4857391;29;9232;-63
2022/07/05 04:40:22;;;;;;;;;;;;;;;28.64;43.22;94628.63;4862531;29;7255;-63
2022/07/05 04:42:57;;;;;;;;;;;;;;;28.65;42.89;94626.59;4787473;29;7527;-63
2022/07/05 04:45:34;;;;;;;;;;;;;;;28.65;43.13;94627.34;4803370;29;7239;-63
2022/07/05 04:48:00;;;;;;;;;;;;;;;28.65;43.19;94638.44;4795151;29;7077;-63
2022/07/05 04:50:27;;;;;;;;;;;;;;;28.68;42.95;94639.41;4786386;29;7252;-63
2022/07/05 04:52:57;;;;;;;;;;;;;;;28.68;43.11;94642.16;4798433;29;9509;-63
2022/07/05 04:55:24;;;;;;;;;;;;;;;28.67;42.81;94638.66;4797303;29;6970;-63
2022/07/05 04:58:03;;;;;;;;;;;;;;;28.65;42.97;94643.97;4786761;29;7053;-63
2022/07/05 05:00:29;;;;;;;;;;;;;;;28.62;43.26;94647.78;4800226;29;7268;-64
2022/07/05 05:02:55;;;;;;;;;;;;;;;28.63;43.31;94640.22;4802021;29;8912;-64
2022/07/05 05:05:20;;;;;;;;;;;;;;;28.60;43.18;94646.81;4803196;29;8993;-63
2022/07/05 05:07:55;;;;;;;;;;;;;;;28.57;43.06;94645.84;4844800;29;7184;-63
2022/07/05 05:10:36;;;;;;;;;;;;;;;28.59;44.04;94654.38;4866907;28;7156;-63
2022/07/05 05:13:17;;;;;;;;;;;;;;;28.60;43.48;94652.34;4943433;28;6986;-63
2022/07/05 05:15:49;;;;;;;;;;;;;;;28.61;43.54;94659.38;4935009;28;9992;-63
2022/07/05 05:18:29;;;;;;;;;;;;;;;28.61;43.83;94649.06;5012421;28;8650;-63
2022/07/05 05:20:56;;;;;;;;;;;;;;;28.59;43.31;94651.59;4994997;28;7466;-63
2022/07/05 05:23:28;;;;;;;;;;;;;;;28.56;43.74;94658.16;5005013;28;8504;-63
2022/07/05 05:25:54;;;;;;;;;;;;;;;28.55;43.96;94658.69;5013913;28;7612;-63
2022/07/05 05:28:33;;;;;;;;;;;;;;;28.57;43.65;94656.13;5005357;28;7206;-63
2022/07/05 05:31:01;;;;;;;;;;;;;;;28.54;43.98;94655.16;4996009;28;7088;-64
2022/07/05 05:33:33;;;;;;;;;;;;;;;28.56;43.63;94660.91;5007485;28;9433;-63
2022/07/05 05:36:00;;;;;;;;;;;;;;;28.57;44.11;94665.22;4997656;28;7258;-63
2022/07/05 05:38:27;;;;;;;;;;;;;;;28.59;44.01;94673.75;4996801;28;9182;-63
2022/07/05 05:40:58;;;;;;;;;;;;;;;28.57;43.82;94673.53;5007273;28;7701;-63
2022/07/05 05:43:26;;;;;;;;;;;;;;;28.58;43.68;94672.22;4991901;28;7014;-63
2022/07/05 05:45:57;;;;;;;;;;;;;;;28.59;44.01;94670.22;5010921;28;7012;-63
2022/07/05 05:48:25;;;;;;;;;;;;;;;28.60;43.84;94666.91;5004800;28;7802;-64
2022/07/05 05:51:01;;;;;;;;;;;;;;;28.61;43.87;94670.44;5002754;28;7242;-63
2022/07/05 05:53:28;;;;;;;;;;;;;;;28.62;43.71;94674.72;4994916;28;8744;-63
2022/07/05 05:55:59;;;;;;;;;;;;;;;28.59;44.02;94682.03;5015897;28;9317;-63
2022/07/05 05:58:25;;;;;;;;;;;;;;;28.60;44.67;94685.56;5016915;28;9445;-64
2022/07/05 06:00:52;;;;;;;;;;;;;;;28.58;43.84;94693.66;4995266;28;7326;-63
2022/07/05 06:03:20;;;;;;;;;;;;;;;28.57;43.71;94692.91;5002023;28;7244;-63
2022/07/05 06:05:46;;;;;;;;;;;;;;;28.57;43.71;94697.63;5009068;28;7106;-63
2022/07/05 06:08:14;;;;;;;;;;;;;;;28.53;43.88;94692.41;5010680;28;9217;-64
2022/07/05 06:10:42;;;;;;;;;;;;;;;28.55;43.69;94703.72;4994498;28;7287;-63
2022/07/05 06:13:12;;;;;;;;;;;;;;;28.53;43.82;94700.72;5005151;28;9096;-63
2022/07/05 06:15:40;;;;;;;;;;;;;;;28.57;44.09;94697.63;4989577;28;7246;-63
2022/07/05 06:18:11;;;;;;;;;;;;;;;28.56;43.78;94702.41;5009053;28;7947;-63
2022/07/05 06:20:39;;;;;;;;;;;;;;;28.55;44.03;94700.94;5003882;28;9047;-63
2022/07/05 06:23:06;;;;;;;;;;;;;;;28.57;43.92;94703.19;5006941;28;7001;-63
2022/07/05 06:25:37;;;;;;;;;;;;;;;28.53;44.42;94703.50;5009163;28;9134;-63
2022/07/05 06:28:10;;;;;;;;;;;;;;;28.54;44.13;94704.97;4975310;28;9388;-63
2022/07/05 06:30:40;;;;;;;;;;;;;;;28.53;44.24;94713.81;5001894;28;7203;-63
2022/07/05 06:33:21;;;;;;;;;;;;;;;28.54;44.14;94707.72;4995458;28;7178;-63
2022/07/05 06:36:03;;;;;;;;;;;;;;;28.52;44.10;94707.50;5011436;28;7370;-63
2022/07/05 06:38:30;;;;;;;;;;;;;;;28.51;43.99;94706.03;4996228;28;7343;-63
2022/07/05 06:40:59;;;;;;;;;;;;;;;28.53;44.55;94711.03;4995449;28;7072;-63
2022/07/05 06:43:31;;;;;;;;;;;;;;;28.50;44.83;94712.81;5013527;28;7012;-63
2022/07/05 06:46:14;;;;;;;;;;;;;;;28.50;44.25;94703.75;5011956;28;9102;-63
2022/07/05 06:48:45;;;;;;;;;;;;;;;28.49;44.53;94718.88;4991619;28;7249;-63
2022/07/05 06:51:11;;;;;;;;;;;;;;;28.48;44.26;94715.38;4989089;28;6934;-64
2022/07/05 06:53:38;;;;;;;;;;;;;;;28.50;44.41;94714.84;5012561;28;6990;-63
2022/07/05 06:56:07;;;;;;;;;;;;;;;28.49;44.25;94722.41;4994108;28;7254;-63
2022/07/05 06:58:34;;;;;;;;;;;;;;;28.50;44.24;94736.97;5009149;28;7007;-63
2022/07/05 07:01:00;;;;;;;;;;;;;;;28.48;44.88;94723.66;4986064;28;7204;-63
2022/07/05 07:03:26;;;;;;;;;;;;;;;28.46;44.85;94731.75;5005963;28;7329;-63
2022/07/05 07:05:57;;;;;;;;;;;;;;;28.48;45.00;94731.22;5008047;28;9182;-63
2022/07/05 07:11:29;;;;;;;;;;;;;;;28.46;44.75;94725.47;5004459;28;7552;-63
2022/07/05 07:14:08;;;;;;;;;;;;;;;28.48;44.93;94726.44;5011276;28;9182;-63
2022/07/05 07:16:35;;;;;;;;;;;;;;;28.48;44.71;94729.19;4998139;28;7934;-63
2022/07/05 07:19:12;;;;;;;;;;;;;;;28.47;44.43;94736.00;4992357;28;9051;-63
2022/07/05 07:21:44;;;;;;;;;;;;;;;28.46;44.59;94731.00;4993880;28;9060;-64
2022/07/05 07:24:12;;;;;;;;;;;;;;;28.47;44.58;94738.03;5004611;28;7280;-63
2022/07/05 07:27:06;;;;;;;;;;;;;;;28.46;44.54;94734.50;4991640;28;7218;-64
2022/07/05 07:29:34;;;;;;;;;;;;;;;28.46;44.40;94731.75;4991864;28;8794;-63
2022/07/05 07:32:02;;;;;;;;;;;;;;;28.45;44.52;94732.28;4989569;28;7148;-63
2022/07/05 07:34:30;;;;;;;;;;;;;;;28.45;44.51;94735.78;5007266;28;7032;-63
2022/07/05 07:36:56;;;;;;;;;;;;;;;28.42;44.35;94733.31;4988895;28;8751;-63
2022/07/05 07:39:26;;;;;;;;;;;;;;;28.43;44.65;94743.84;5010331;28;6976;-63
2022/07/05 07:41:57;;;;;;;;;;;;;;;28.41;44.06;94746.38;5008125;28;7240;-63
2022/07/05 07:44:24;;;;;;;;;;;;;;;28.42;44.73;94747.13;4995123;28;7366;-64
2022/07/05 07:46:58;;;;;;;;;;;;;;;28.45;44.19;94754.41;5008962;28;7080;-63
2022/07/05 07:49:27;;;;;;;;;;;;;;;28.43;43.98;94754.19;4992350;28;7282;-64
2022/07/05 07:52:01;;;;;;;;;;;;;;;28.40;43.58;94744.91;5005477;28;8925;-63
2022/07/05 07:54:57;;;;;;;;;;;;;;;28.39;44.23;94751.69;5014075;28;8842;-64
2022/07/05 07:57:25;;;;;;;;;;;;;;;28.39;43.78;94746.16;4993675;28;7112;-64
2022/07/05 07:59:51;;;;;;;;;;;;;;;28.39;43.22;94743.41;4991008;28;6971;-64
2022/07/05 08:02:20;;;;;;;;;;;;;;;28.41;43.93;94749.16;4991224;28;7274;-64
2022/07/05 08:04:48;;;;;;;;;;;;;;;28.44;43.67;94739.06;4991309;28;9348;-64
2022/07/05 08:07:23;;;;;;;;;;;;;;;28.40;43.42;94744.91;5019012;28;7260;-64
2022/07/05 08:10:02;;;;;;;;;;;;;;;28.41;43.35;94740.84;5013646;28;7721;-63
2022/07/05 08:12:30;;;;;;;;;;;;;;;28.42;42.91;94747.91;4987836;28;8668;-64
2022/07/05 08:15:23;;;;;;;;;;;;;;;28.43;43.31;94743.84;5010546;28;9501;-64
2022/07/05 08:23:41;;;;;;;;;;;;;;;28.38;43.25;94744.69;5016242;28;7326;-63
2022/07/05 08:26:10;;;;;;;;;;;;;;;28.38;43.98;94741.91;4966612;28;7231;-64
2022/07/05 08:28:36;;;;;;;;;;;;;;;28.38;43.26;94739.88;4998472;28;7293;-63
2022/07/05 08:31:08;;;;;;;;;;;;;;;28.38;43.16;94742.63;5009087;28;9498;-63
2022/07/05 08:34:01;;;;;;;;;;;;;;;28.40;43.09;94739.38;5011440;28;7188;-63
2022/07/05 08:36:28;;;;;;;;;;;;;;;28.40;42.82;94744.91;4940564;28;7192;-63
2022/07/05 08:39:04;;;;;;;;;;;;;;;28.40;42.65;94739.38;4953679;28;7059;-63
2022/07/05 08:42:00;;;;;;;;;;;;;;;28.40;42.90;94741.38;4950586;28;7220;-63
2022/07/05 08:44:38;;;;;;;;;;;;;;;28.40;42.62;94741.38;4877609;29;7220;-63
2022/07/05 08:47:15;;;;;;;;;;;;;;;28.39;42.94;94743.41;4860831;29;7204;-63
2022/07/05 08:49:54;;;;;;;;;;;;;;;28.38;42.47;94739.16;4860416;29;7826;-64
2022/07/05 08:52:21;;;;;;;;;;;;;;;28.40;43.35;94741.38;4874886;29;7248;-64
2022/07/05 08:55:17;;;;;;;;;;;;;;;28.40;42.73;94739.38;4875984;29;7021;-63
2022/07/05 08:57:50;;;;;;;;;;;;;;;28.41;43.31;94746.38;4801339;29;7273;-63
2022/07/05 09:00:16;;;;;;;;;;;;;;;28.40;42.65;94750.44;4800726;29;7463;-63
2022/07/05 09:02:45;;;;;;;;;;;;;;;28.40;42.72;94752.44;4801515;29;9060;-63
2022/07/05 09:05:14;;;;;;;;;;;;;;;28.40;42.52;94755.22;4803672;29;7014;-63
2022/07/05 09:08:18;;;;;;;;;;;;;;;28.39;42.57;94760.00;4801345;29;7430;-63
2022/07/05 09:10:45;;;;;;;;;;;;;;;28.39;42.80;94748.94;4798079;29;7612;-64
2022/07/05 09:13:13;;;;;;;;;;;;;;;28.39;42.42;94751.69;4819912;29;7212;-64
2022/07/05 09:15:43;;;;;;;;;;;;;;;28.38;42.78;94750.22;4854468;29;6975;-64
2022/07/05 09:18:42;;;;;;;;;;;;;;;28.39;42.97;94754.47;4843210;29;7275;-63
2022/07/05 09:21:27;;;;;;;;;;;;;;;28.39;42.91;94751.69;4886436;29;7568;-64
2022/07/05 09:24:11;;;;;;;;;;;;;;;28.41;42.93;94756.69;4919173;28;7188;-64
2022/07/05 09:26:48;;;;;;;;;;;;;;;28.41;43.31;94759.47;4924045;28;7306;-63
2022/07/05 09:29:27;;;;;;;;;;;;;;;28.41;42.94;94756.69;4933120;28;7176;-63
2022/07/05 09:31:54;;;;;;;;;;;;;;;28.40;43.24;94758.75;4916517;29;7224;-63
2022/07/05 09:34:23;;;;;;;;;;;;;;;28.42;43.68;94747.91;4956244;28;9084;-63
2022/07/05 09:37:01;;;;;;;;;;;;;;;28.40;43.30;94758.75;4991022;28;9251;-63
2022/07/05 09:39:37;;;;;;;;;;;;;;;28.43;43.15;94762.50;4972128;28;7080;-63
2022/07/05 09:42:20;;;;;;;;;;;;;;;28.42;43.45;94758.22;4981172;28;7539;-63
2022/07/05 09:44:52;;;;;;;;;;;;;;;28.45;43.35;94754.41;5012178;28;7199;-63
2022/07/05 09:47:28;;;;;;;;;;;;;;;28.44;43.33;94756.44;4995039;28;8281;-63
2022/07/05 09:50:05;;;;;;;;;;;;;;;28.46;43.49;94753.88;5008900;28;9315;-64
2022/07/05 09:52:43;;;;;;;;;;;;;;;28.47;43.57;94749.09;5010134;28;8703;-64
2022/07/05 09:55:18;;;;;;;;;;;;;;;28.48;43.61;94756.88;5005181;28;7361;-64
2022/07/05 09:57:46;;;;;;;;;;;;;;;28.49;43.14;94752.84;4999976;28;7329;-64
2022/07/05 10:00:21;;;;;;;;;;;;;;;28.51;43.45;94746.78;5003830;28;7174;-64
2022/07/05 10:02:48;;;;;;;;;;;;;;;28.51;43.48;94750.31;4982393;28;8745;-63
2022/07/05 10:05:17;;;;;;;;;;;;;;;28.51;43.54;94755.84;5004089;28;7843;-63
2022/07/05 10:07:51;;;;;;;;;;;;;;;28.52;43.31;94745.50;4995422;28;9477;-63
2022/07/05 10:10:18;;;;;;;;;;;;;;;28.54;43.70;94743.72;5009227;28;7151;-63
2022/07/05 10:12:47;;;;;;;;;;;;;;;28.56;43.07;94746.69;5012259;28;7273;-64
2022/07/05 10:15:22;;;;;;;;;;;;;;;28.56;43.03;94741.16;5002310;28;9378;-64
2022/07/05 10:18:03;;;;;;;;;;;;;;;28.57;42.70;94742.72;5009033;28;7236;-64
2022/07/05 10:20:36;;;;;;;;;;;;;;;28.58;43.66;94741.41;4978969;28;7595;-64
2022/07/05 10:23:04;;;;;;;;;;;;;;;28.58;43.27;94744.19;4991254;28;7320;-64
2022/07/05 10:25:31;;;;;;;;;;;;;;;28.58;43.11;94749.72;4990610;28;9099;-64
2022/07/05 10:28:07;;;;;;;;;;;;;;;28.58;43.19;94744.19;4994400;28;7226;-64
2022/07/05 10:30:38;;;;;;;;;;;;;;;28.59;42.88;94742.94;4992301;28;7204;-64
2022/07/05 10:33:07;;;;;;;;;;;;;;;28.59;43.34;94744.94;4980418;28;6990;-64
2022/07/05 10:35:49;;;;;;;;;;;;;;;28.58;43.08;94738.66;5013791;28;9092;-64
2022/07/05 10:38:20;;;;;;;;;;;;;;;28.61;43.29;94748.69;5015292;28;8589;-64
2022/07/05 10:41:09;;;;;;;;;;;;;;;28.62;43.22;94749.44;4988350;28;7176;-64
2022/07/05 10:43:56;;;;;;;;;;;;;;;28.65;42.63;94748.38;4984496;28;7064;-64
2022/07/05 10:46:37;;;;;;;;;;;;;;;28.63;43.16;94748.91;4995426;28;7186;-64
2022/07/05 10:49:17;;;;;;;;;;;;;;;28.64;42.60;94747.66;5007761;28;6926;-64
2022/07/05 10:51:53;;;;;;;;;;;;;;;28.64;43.09;94736.59;4987025;28;7211;-64
2022/07/05 10:54:31;;;;;;;;;;;;;;;28.65;42.70;94740.06;4995327;28;7261;-64
2022/07/05 10:57:23;;;;;;;;;;;;;;;28.64;42.92;94742.13;4989847;28;7874;-64
2022/07/05 11:00:10;;;;;;;;;;;;;;;28.64;42.76;94736.59;5016095;28;9207;-64
2022/07/05 11:02:37;;;;;;;;;;;;;;;28.64;42.61;94742.13;4993725;28;6993;-64
2022/07/05 11:05:06;;;;;;;;;;;;;;;28.65;42.59;94738.06;5007598;28;7320;-64
2022/07/05 11:08:05;;;;;;;;;;;;;;;28.67;42.00;94743.06;5000128;28;7059;-64
2022/07/05 11:10:32;;;;;;;;;;;;;;;28.66;42.31;94738.81;4997040;28;7461;-64
2022/07/05 11:13:38;;;;;;;;;;;;;;;28.67;42.14;94732.00;4992085;28;7182;-64
2022/07/05 11:16:23;;;;;;;;;;;;;;;28.66;42.46;94728.50;5003285;28;7612;-64
2022/07/05 11:19:21;;;;;;;;;;;;;;;28.66;42.30;94722.97;5013675;28;7596;-63
2022/07/05 11:22:07;;;;;;;;;;;;;;;28.67;42.01;94726.47;4994179;28;9406;-64
2022/07/05 11:24:37;;;;;;;;;;;;;;;28.68;41.66;94728.72;4989896;28;7004;-64
2022/07/05 11:27:11;;;;;;;;;;;;;;;28.71;41.90;94730.44;4994774;28;7129;-64
2022/07/05 11:29:56;;;;;;;;;;;;;;;28.71;42.03;94730.44;5007203;28;7516;-64
2022/07/05 11:32:27;;;;;;;;;;;;;;;28.72;42.13;94726.41;5011506;28;7385;-64
2022/07/05 11:35:32;;;;;;;;;;;;;;;28.74;41.64;94723.09;4993233;28;7219;-64
2022/07/05 11:38:19;;;;;;;;;;;;;;;28.75;41.26;94711.50;4989410;28;6990;-64
2022/07/05 11:40:46;;;;;;;;;;;;;;;28.76;41.64;94726.09;5009676;28;9270;-64
2022/07/05 11:43:30;;;;;;;;;;;;;;;28.77;41.31;94722.81;4998751;28;7295;-64
2022/07/05 11:46:00;;;;;;;;;;;;;;;28.77;42.21;94724.84;4994929;28;9133;-64
2022/07/05 11:48:28;;;;;;;;;;;;;;;28.79;41.47;94714.75;4995160;28;7438;-64
2022/07/05 11:50:55;;;;;;;;;;;;;;;28.79;41.68;94719.53;4998437;28;7217;-63
2022/07/05 11:53:30;;;;;;;;;;;;;;;28.76;41.85;94718.53;4994109;28;8960;-63
2022/07/05 11:55:59;;;;;;;;;;;;;;;28.78;41.56;94710.47;5000738;28;7397;-63
2022/07/05 11:58:32;;;;;;;;;;;;;;;28.80;41.72;94716.22;4999903;28;7501;-63
2022/07/05 12:00:59;;;;;;;;;;;;;;;28.82;41.35;94716.44;5015844;28;6981;-63
2022/07/05 12:03:28;;;;;;;;;;;;;;;28.83;41.04;94717.94;5008787;28;9197;-63
2022/07/05 12:05:55;;;;;;;;;;;;;;;28.83;41.06;94712.41;5003823;28;7074;-63
2022/07/05 12:08:25;;;;;;;;;;;;;;;28.84;40.78;94716.66;5009130;28;7279;-63
2022/07/05 12:14:05;;;;;;;;;;;;;;;28.83;40.77;94708.88;5006631;28;7261;-63
2022/07/05 12:16:32;;;;;;;;;;;;;;;28.81;40.39;94706.66;5001496;28;8413;-64
2022/07/05 12:19:01;;;;;;;;;;;;;;;28.84;40.13;94705.59;5013047;28;7904;-64
2022/07/05 12:21:27;;;;;;;;;;;;;;;28.85;38.81;94711.88;4995110;28;7270;-64
2022/07/05 12:23:55;;;;;;;;;;;;;;;28.84;39.07;94699.31;5010046;28;6988;-64
2022/07/05 12:26:22;;;;;;;;;;;;;;;28.84;38.88;94704.88;4997435;28;7475;-64
2022/07/05 12:28:51;;;;;;;;;;;;;;;28.81;37.61;94700.38;5014164;28;7773;-64
2022/07/05 12:31:24;;;;;;;;;;;;;;;28.80;37.11;94698.84;4992938;28;8961;-64
2022/07/05 12:33:51;;;;;;;;;;;;;;;28.81;36.87;94701.13;4991504;28;7402;-64
2022/07/05 12:36:23;;;;;;;;;;;;;;;28.85;37.17;94709.88;5008998;28;9557;-63
2022/07/05 12:38:49;;;;;;;;;;;;;;;28.84;36.94;94688.97;5011388;28;7192;-63
2022/07/05 12:41:23;;;;;;;;;;;;;;;28.85;37.18;94696.03;4992051;28;9127;-63
2022/07/05 12:43:55;;;;;;;;;;;;;;;28.86;36.15;94697.50;4999004;28;7505;-64
2022/07/05 12:46:46;;;;;;;;;;;;;;;28.93;37.21;94696.16;4996796;28;6974;-63
2022/07/05 12:49:30;;;;;;;;;;;;;;;28.98;36.50;94698.84;4994729;28;8336;-64
2022/07/05 12:52:06;;;;;;;;;;;;;;;28.99;37.40;94691.31;4991434;28;7132;-63
2022/07/05 13:00:27;;;;;;;;;;;;;;;29.08;36.65;94685.34;5006689;28;7221;-63
2022/07/05 13:02:53;;;;;;;;;;;;;;;29.11;37.25;94695.38;5000914;28;9068;-63
2022/07/05 13:05:22;;;;;;;;;;;;;;;29.13;36.51;94692.06;4993591;28;8792;-63
2022/07/05 13:07:58;;;;;;;;;;;;;;;29.10;35.77;94689.09;4981258;28;7873;-63
2022/07/05 13:10:33;;;;;;;;;;;;;;;29.08;35.07;94691.63;4998244;28;7166;-64
2022/07/05 13:13:05;;;;;;;;;;;;;;;29.08;36.64;94696.44;5002430;28;9048;-64
2022/07/05 13:15:42;;;;;;;;;;;;;;;29.06;35.97;94694.19;5009043;28;9254;-63
2022/07/05 13:18:08;;;;;;;;;;;;;;;29.10;35.99;94694.63;4981112;28;9135;-63
2022/07/05 13:20:36;;;;;;;;;;;;;;;29.15;36.56;94689.53;4988884;28;7377;-63
2022/07/05 13:23:03;;;;;;;;;;;;;;;29.17;36.74;94693.28;5015385;28;7222;-64
2022/07/05 13:25:34;;;;;;;;;;;;;;;29.21;36.31;94687.47;4997359;28;7566;-64
2022/07/05 13:28:00;;;;;;;;;;;;;;;29.23;35.56;94691.19;4998220;28;7141;-63
2022/07/05 13:30:41;;;;;;;;;;;;;;;29.26;35.54;94689.38;5001746;28;7230;-63
2022/07/05 13:33:07;;;;;;;;;;;;;;;29.25;34.15;94682.34;4999744;28;7431;-63
2022/07/05 13:35:33;;;;;;;;;;;;;;;29.29;35.36;94688.34;4992519;28;6986;-63
2022/07/05 13:37:59;;;;;;;;;;;;;;;29.29;34.96;94688.34;5016434;28;7103;-63
2022/07/05 13:40:29;;;;;;;;;;;;;;;29.30;35.62;94695.34;5005966;28;7183;-63
2022/07/05 13:42:55;;;;;;;;;;;;;;;29.29;35.23;94691.09;4997128;28;7638;-63
2022/07/05 13:45:21;;;;;;;;;;;;;;;29.31;34.58;94694.84;4994360;28;7414;-63
2022/07/05 13:47:47;;;;;;;;;;;;;;;29.31;35.36;94694.84;5015401;28;7264;-64
2022/07/05 13:50:32;;;;;;;;;;;;;;;29.29;33.33;94689.09;5019008;28;7230;-63